createdAt,value
2023-10-14T00:00:29.562Z,13.85
2023-10-14T00:03:35.172Z,13.82
2023-10-14T00:06:40.242Z,13.74
2023-10-14T00:09:45.451Z,13.69
2023-10-14T00:12:54.780Z,13.70
2023-10-14T00:16:03.029Z,13.71
2023-10-14T00:19:10.755Z,13.71
2023-10-14T00:22:15.794Z,13.70
2023-10-14T00:25:21.124Z,13.72
2023-10-14T00:28:26.235Z,13.66
2023-10-14T00:31:30.757Z,13.63
2023-10-14T00:34:35.308Z,13.58
2023-10-14T00:37:39.851Z,13.53
2023-10-14T00:40:47.237Z,13.47
2023-10-14T00:43:51.570Z,13.42
2023-10-14T00:46:57.119Z,13.43
2023-10-14T00:50:17.978Z,13.43
2023-10-14T00:53:22.643Z,13.44
2023-10-14T00:56:29.935Z,13.43
2023-10-14T00:59:35.937Z,13.41
2023-10-14T01:02:41.283Z,13.40
2023-10-14T01:05:46.819Z,13.42
2023-10-14T01:08:54.175Z,13.39
2023-10-14T01:12:04.790Z,13.31
2023-10-14T01:15:31.127Z,13.25
2023-10-14T01:18:43.236Z,13.19
2023-10-14T01:22:02.085Z,13.17
2023-10-14T01:25:30.623Z,13.15
2023-10-14T01:28:42.527Z,13.09
2023-10-14T01:32:38.373Z,13.05
2023-10-14T01:35:46.631Z,12.82
2023-10-14T01:39:00.971Z,12.68
2023-10-14T01:42:09.661Z,12.59
2023-10-14T01:45:15.995Z,12.56
2023-10-14T01:48:22.835Z,12.52
2023-10-14T02:50:33.713Z,12.41
2023-10-14T02:53:44.027Z,12.34
2023-10-14T02:56:54.180Z,12.27
2023-10-14T02:59:58.588Z,12.24
2023-10-14T04:05:20.359Z,11.38
2023-10-14T04:08:40.719Z,11.40
2023-10-14T04:11:48.580Z,11.38
2023-10-14T04:14:55.940Z,11.29
2023-10-14T05:17:12.659Z,11.35
2023-10-14T05:20:21.144Z,11.39
2023-10-14T05:23:32.221Z,11.36
2023-10-14T05:27:00.122Z,11.29
2023-10-14T05:30:09.900Z,11.24
2023-10-14T06:12:52.416Z,11.13
2023-10-14T06:15:56.841Z,11.17
2023-10-14T06:19:01.898Z,11.22
2023-10-14T06:22:09.747Z,11.26
2023-10-14T06:25:19.365Z,11.34
2023-10-14T06:28:23.919Z,11.37
2023-10-14T06:31:28.704Z,11.35
2023-10-14T06:34:35.464Z,11.35
2023-10-14T06:37:43.539Z,11.39
2023-10-14T06:40:54.721Z,11.40
2023-10-14T06:43:59.017Z,11.41
2023-10-14T06:47:04.340Z,11.43
2023-10-14T06:50:13.666Z,11.45
2023-10-14T06:53:19.558Z,11.49
2023-10-14T06:56:28.244Z,11.43
2023-10-14T06:59:32.763Z,11.52
2023-10-14T07:02:37.294Z,11.49
2023-10-14T07:05:58.179Z,11.53
2023-10-14T07:09:09.027Z,11.51
2023-10-14T07:12:16.700Z,11.52
2023-10-14T07:15:22.252Z,11.57
2023-10-14T07:18:26.983Z,11.59
2023-10-14T07:21:32.208Z,11.60
2023-10-14T07:24:37.091Z,11.60
2023-10-14T07:27:41.930Z,11.64
2023-10-14T07:30:52.503Z,11.67
2023-10-14T07:34:03.694Z,11.84
2023-10-14T07:37:10.658Z,11.88
2023-10-14T07:40:25.266Z,11.94
2023-10-14T07:43:30.021Z,12.02
2023-10-14T07:46:36.681Z,12.00
2023-10-14T07:49:40.994Z,11.98
2023-10-14T07:52:45.695Z,12.06
2023-10-14T07:55:54.266Z,12.06
2023-10-14T07:58:59.089Z,12.14
2023-10-14T08:02:04.715Z,12.23
2023-10-14T08:05:11.713Z,12.27
2023-10-14T08:08:17.208Z,12.30
2023-10-14T08:11:23.322Z,12.36
2023-10-14T08:14:32.154Z,12.38
2023-10-14T08:17:37.698Z,12.39
2023-10-14T08:20:44.986Z,12.40
2023-10-14T08:23:49.361Z,12.47
2023-10-14T08:26:54.910Z,12.55
2023-10-14T08:29:59.993Z,12.67
2023-10-14T08:33:04.334Z,12.73
2023-10-14T08:36:08.838Z,12.27
2023-10-14T08:39:15.643Z,11.96
2023-10-14T08:42:20.257Z,11.93
2023-10-14T08:45:29.911Z,12.03
2023-10-14T08:48:35.232Z,12.16
2023-10-14T08:51:53.575Z,12.42
2023-10-14T08:54:59.750Z,12.43
2023-10-14T08:58:07.087Z,12.16
2023-10-14T09:01:17.465Z,12.03
2023-10-14T09:04:29.905Z,11.97
2023-10-14T09:07:40.140Z,11.95
2023-10-14T09:10:46.105Z,11.90
2023-10-14T09:14:04.048Z,11.90
2023-10-14T09:17:09.692Z,11.96
2023-10-14T09:20:30.941Z,12.06
2023-10-14T09:23:35.818Z,12.09
2023-10-14T09:26:44.919Z,12.07
2023-10-14T09:29:58.202Z,12.05
2023-10-14T09:33:03.705Z,12.04
2023-10-14T09:36:16.361Z,12.01
2023-10-14T09:39:26.056Z,12.07
2023-10-14T09:42:33.355Z,12.15
2023-10-14T09:45:39.737Z,12.16
2023-10-14T09:48:45.691Z,12.18
2023-10-14T09:51:52.574Z,12.21
2023-10-14T09:54:57.582Z,12.36
2023-10-14T09:58:02.805Z,12.41
2023-10-14T10:01:09.887Z,12.19
2023-10-14T10:04:23.294Z,10.89
2023-10-14T10:08:02.944Z,9.78
2023-10-14T10:11:09.518Z,9.43
2023-10-14T10:14:18.078Z,9.29
2023-10-14T10:17:23.937Z,9.24
2023-10-14T10:20:31.133Z,9.22
2023-10-14T10:23:37.030Z,9.23
2023-10-14T10:27:06.831Z,9.29
2023-10-14T10:30:16.828Z,9.43
2023-10-14T10:33:24.141Z,9.44
2023-10-14T10:36:34.106Z,9.35
2023-10-14T10:39:38.470Z,9.23
2023-10-14T10:42:47.931Z,9.19
2023-10-14T10:45:55.891Z,9.20
2023-10-14T10:49:00.504Z,9.17
2023-10-14T10:52:15.747Z,9.20
2023-10-14T10:55:21.519Z,9.25
2023-10-14T10:58:27.201Z,9.33
2023-10-14T11:01:34.969Z,9.50
2023-10-14T11:04:43.798Z,9.65
2023-10-14T11:07:49.956Z,9.76
2023-10-14T11:10:54.631Z,9.86
2023-10-14T11:14:01.585Z,9.97
2023-10-14T11:17:07.667Z,10.09
2023-10-14T11:20:16.198Z,10.15
2023-10-14T11:23:20.790Z,10.24
2023-10-14T11:26:25.531Z,10.43
2023-10-14T11:29:30.356Z,10.66
2023-10-14T11:32:34.794Z,10.89
2023-10-14T11:35:40.021Z,10.89
2023-10-14T11:38:45.113Z,10.80
2023-10-14T11:41:52.936Z,10.84
2023-10-14T11:44:57.230Z,10.96
2023-10-14T11:48:02.136Z,11.07
2023-10-14T11:51:12.643Z,11.15
2023-10-14T11:54:18.632Z,11.21
2023-10-14T11:57:23.121Z,11.28
2023-10-14T12:00:29.224Z,11.23
2023-10-14T12:03:33.687Z,11.18
2023-10-14T12:06:39.158Z,11.14
2023-10-14T12:09:44.263Z,11.07
